Time;durP1;ratioP1;P1;durP2;ratioP2;P2;SDS_P1;SDS_P2;PMS_P1;PMS_P2;Temp;Humidity;BMP_temperature;BMP_pressure;BME280_temperature;BME280_humidity;BME280_pressure;Samples;Min_cycle;Max_cycle;Signal;HPM_P1;HPM_P2
2023/05/11 00:00:34;;;;;;;2.20;1.58;;;14.70;99.90;;;;;;5117247;28;20076;-72
2023/05/11 00:02:59;;;;;;;4.22;2.05;;;14.70;99.90;;;;;;5116670;28;20061;-72
2023/05/11 00:05:26;;;;;;;6.35;1.98;;;14.70;99.90;;;;;;5099956;28;20058;-72
2023/05/11 00:07:51;;;;;;;3.22;1.98;;;14.70;99.90;;;;;;5132818;22;20032;-76
2023/05/11 00:10:17;;;;;;;5.72;2.10;;;14.70;99.90;;;;;;5095937;28;20046;-76
2023/05/11 00:12:42;;;;;;;4.85;2.08;;;14.60;99.90;;;;;;5097186;28;20023;-76
2023/05/11 00:15:08;;;;;;;16.70;2.50;;;14.60;99.90;;;;;;5096093;28;20081;-76
2023/05/11 00:17:34;;;;;;;7.05;2.50;;;14.70;99.90;;;;;;5096980;28;20034;-75
2023/05/11 00:19:59;;;;;;;8.02;2.90;;;14.70;99.90;;;;;;5100050;28;20028;-76
2023/05/11 00:22:25;;;;;;;7.50;2.80;;;14.60;99.90;;;;;;5100034;28;20106;-76
2023/05/11 00:24:50;;;;;;;6.15;3.20;;;14.40;99.90;;;;;;5100385;28;20023;-76
2023/05/11 00:27:16;;;;;;;4.35;2.95;;;14.30;99.90;;;;;;5099440;28;20024;-76
2023/05/11 00:29:42;;;;;;;5.47;3.03;;;14.10;99.90;;;;;;5100375;28;20020;-76
2023/05/11 00:32:07;;;;;;;8.85;3.33;;;14.10;99.90;;;;;;5099797;28;20055;-76
2023/05/11 00:34:33;;;;;;;7.65;3.38;;;14.10;99.90;;;;;;5099505;28;20024;-76
2023/05/11 00:36:58;;;;;;;6.22;2.90;;;14.00;99.90;;;;;;5099849;28;20024;-76
2023/05/11 00:39:24;;;;;;;3.53;2.75;;;14.00;99.90;;;;;;5099345;28;20024;-76
2023/05/11 00:41:50;;;;;;;5.07;2.58;;;13.90;99.90;;;;;;5099262;28;20028;-76
2023/05/11 00:44:15;;;;;;;6.53;3.10;;;13.90;99.90;;;;;;5099490;28;20028;-76
2023/05/11 00:46:41;;;;;;;7.38;2.50;;;13.90;99.90;;;;;;5099208;28;20023;-76
2023/05/11 00:49:08;;;;;;;3.08;2.22;;;13.90;99.90;;;;;;5098998;28;20024;-76
2023/05/11 00:51:34;;;;;;;3.58;2.45;;;13.90;99.90;;;;;;5099408;28;20043;-76
2023/05/11 00:54:01;;;;;;;4.60;2.78;;;13.80;99.90;;;;;;5098988;28;20087;-76
2023/05/11 00:56:27;;;;;;;6.00;3.40;;;13.80;99.90;;;;;;5099528;28;20024;-76
2023/05/11 00:58:52;;;;;;;8.32;2.80;;;13.80;99.90;;;;;;5098730;28;20029;-75
2023/05/11 01:01:18;;;;;;;6.20;3.20;;;13.70;99.90;;;;;;5099116;28;20020;-76
2023/05/11 01:03:45;;;;;;;5.07;3.00;;;13.70;99.90;;;;;;5098893;28;20024;-76
2023/05/11 01:06:28;;;;;;;4.82;3.00;;;13.70;99.90;;;;;;5099227;28;20032;-76
2023/05/11 01:09:03;;;;;;;4.35;2.97;;;13.70;99.90;;;;;;5098966;28;20028;-75
2023/05/11 01:11:59;;;;;;;6.63;2.92;;;13.70;99.90;;;;;;5098861;28;20050;-76
2023/05/11 01:14:33;;;;;;;8.15;3.72;;;13.70;99.90;;;;;;5099318;28;20114;-76
2023/05/11 01:17:07;;;;;;;8.98;3.33;;;13.70;99.90;;;;;;5098710;28;20118;-75
2023/05/11 01:20:00;;;;;;;8.77;3.92;;;13.60;99.90;;;;;;5098612;28;20035;-76
2023/05/11 01:22:28;;;;;;;8.90;3.70;;;13.60;99.90;;;;;;5098511;28;20035;-76
2023/05/11 01:25:19;;;;;;;8.98;3.63;;;13.70;99.90;;;;;;5098401;28;20020;-76
2023/05/11 01:28:17;;;;;;;6.60;4.50;;;13.70;99.90;;;;;;5099224;28;20027;-76
2023/05/11 01:30:50;;;;;;;4.57;3.15;;;13.70;99.90;;;;;;5098792;28;20024;-76
2023/05/11 01:33:20;;;;;;;5.18;3.75;;;13.70;99.90;;;;;;5098361;28;20043;-76
2023/05/11 01:35:51;;;;;;;8.20;4.47;;;13.70;99.90;;;;;;5099047;28;20020;-76
2023/05/11 01:38:20;;;;;;;9.40;4.38;;;13.80;99.90;;;;;;5098236;28;20020;-76
2023/05/11 01:40:53;;;;;;;7.38;4.03;;;13.70;99.90;;;;;;5098947;28;20075;-76
2023/05/11 01:43:22;;;;;;;9.00;3.50;;;13.80;99.90;;;;;;5098708;28;20107;-76
2023/05/11 01:45:51;;;;;;;5.82;3.90;;;13.70;99.90;;;;;;5098125;28;20024;-76
2023/05/11 01:48:21;;;;;;;13.02;4.40;;;13.80;99.90;;;;;;5098464;28;20020;-76
2023/05/11 01:50:50;;;;;;;8.70;3.70;;;13.80;99.90;;;;;;5098995;28;20059;-76
2023/05/11 01:53:17;;;;;;;6.97;4.10;;;13.80;99.90;;;;;;5098867;28;20024;-76
2023/05/11 01:55:45;;;;;;;6.57;3.88;;;13.70;99.90;;;;;;5097886;28;20047;-76
2023/05/11 01:58:13;;;;;;;13.73;4.93;;;13.80;99.90;;;;;;5098098;28;20024;-76
2023/05/11 02:00:40;;;;;;;7.93;4.60;;;13.70;99.90;;;;;;5098011;28;20024;-76
2023/05/11 02:03:07;;;;;;;7.65;4.15;;;13.70;99.90;;;;;;5097769;28;20027;-76
2023/05/11 02:05:33;;;;;;;6.20;4.35;;;13.70;99.90;;;;;;5097636;28;20020;-76
2023/05/11 02:08:01;;;;;;;7.78;4.20;;;13.70;99.90;;;;;;5097527;28;20048;-76
2023/05/11 02:10:28;;;;;;;8.80;4.97;;;13.70;99.90;;;;;;5097546;28;20111;-75
2023/05/11 02:12:55;;;;;;;8.63;4.20;;;13.60;99.90;;;;;;5097320;28;20024;-76
2023/05/11 02:15:24;;;;;;;6.07;4.43;;;13.60;99.90;;;;;;5097460;28;20107;-75
2023/05/11 02:17:52;;;;;;;7.80;5.00;;;13.50;99.90;;;;;;5097246;28;20028;-75
2023/05/11 02:20:18;;;;;;;8.48;4.90;;;13.40;99.90;;;;;;5098098;28;20024;-76
2023/05/11 02:22:44;;;;;;;8.30;5.15;;;13.40;99.90;;;;;;5097276;28;20020;-73
2023/05/11 02:25:11;;;;;;;8.18;4.65;;;13.40;99.90;;;;;;5097053;28;20024;-73
2023/05/11 02:27:37;;;;;;;8.50;4.78;;;13.50;99.90;;;;;;5097332;28;20024;-73
2023/05/11 02:30:09;;;;;;;14.75;5.30;;;13.50;99.90;;;;;;5098267;28;20012;-76
2023/05/11 02:32:41;;;;;;;7.38;4.78;;;13.40;99.90;;;;;;5097575;28;20027;-76
2023/05/11 02:35:14;;;;;;;9.45;5.03;;;13.40;99.90;;;;;;5097937;28;20020;-75
2023/05/11 02:37:45;;;;;;;7.38;4.43;;;13.40;99.90;;;;;;5098361;28;20032;-76
2023/05/11 02:40:17;;;;;;;8.57;4.80;;;13.40;99.90;;;;;;5096645;28;20035;-76
2023/05/11 02:42:45;;;;;;;8.80;4.72;;;13.40;99.90;;;;;;5096667;28;20024;-75
2023/05/11 02:45:13;;;;;;;8.52;4.80;;;13.50;99.90;;;;;;5096597;28;20035;-74
2023/05/11 02:48:07;;;;;;;9.75;4.40;;;13.40;99.90;;;;;;5096507;28;20031;-74
2023/05/11 02:50:36;;;;;;;10.48;4.70;;;13.40;99.90;;;;;;5094373;28;20032;-74
2023/05/11 02:53:06;;;;;;;11.15;5.13;;;13.30;99.90;;;;;;5096520;28;20020;-74
2023/05/11 02:55:32;;;;;;;7.93;4.65;;;13.30;99.90;;;;;;5096567;28;20031;-74
2023/05/11 02:57:57;;;;;;;13.18;5.93;;;13.20;99.90;;;;;;5096627;28;20024;-74
2023/05/11 03:00:23;;;;;;;9.13;5.35;;;13.20;99.90;;;;;;5096426;28;20027;-74
2023/05/11 03:02:49;;;;;;;9.05;4.65;;;13.20;99.90;;;;;;5097260;28;20024;-74
2023/05/11 03:05:15;;;;;;;15.18;5.57;;;13.30;99.90;;;;;;5096412;28;20034;-74
2023/05/11 03:07:41;;;;;;;13.63;5.38;;;13.20;99.90;;;;;;5096284;28;20032;-74
2023/05/11 03:10:30;;;;;;;7.95;4.60;;;13.10;99.90;;;;;;5096484;28;20024;-74
2023/05/11 03:12:56;;;;;;;7.15;4.72;;;13.00;99.90;;;;;;5096963;28;20094;-74
2023/05/11 03:15:22;;;;;;;14.13;5.50;;;13.00;99.90;;;;;;5097159;28;20020;-74
2023/05/11 03:17:50;;;;;;;11.52;5.13;;;13.00;99.90;;;;;;5096418;28;20023;-74
2023/05/11 03:20:17;;;;;;;7.28;4.28;;;13.00;99.90;;;;;;5096262;28;20055;-74
2023/05/11 03:22:45;;;;;;;23.55;6.00;;;13.00;99.90;;;;;;5097173;28;20027;-74
2023/05/11 03:25:13;;;;;;;14.20;6.00;;;12.90;99.90;;;;;;5096241;28;20035;-74
2023/05/11 03:27:40;;;;;;;17.25;5.78;;;12.80;99.90;;;;;;5095991;28;20055;-74
2023/05/11 03:30:07;;;;;;;12.80;4.80;;;12.90;99.90;;;;;;5096227;28;20024;-74
2023/05/11 03:32:34;;;;;;;18.13;6.20;;;13.00;99.90;;;;;;5096038;28;20021;-74
2023/05/11 03:35:00;;;;;;;25.23;5.68;;;13.00;99.90;;;;;;5096183;28;20024;-74
2023/05/11 03:37:26;;;;;;;21.98;6.03;;;13.00;99.90;;;;;;5096905;28;20088;-74
2023/05/11 03:39:59;;;;;;;8.88;5.40;;;12.90;99.90;;;;;;5096443;28;20140;-74
2023/05/11 03:42:26;;;;;;;9.05;5.03;;;13.00;99.90;;;;;;5096903;28;20031;-74
2023/05/11 03:44:54;;;;;;;9.43;5.47;;;12.90;99.90;;;;;;5096099;28;20028;-74
2023/05/11 03:47:21;;;;;;;11.30;5.95;;;12.90;99.90;;;;;;5096155;28;20103;-74
2023/05/11 03:49:48;;;;;;;18.70;5.97;;;12.90;99.90;;;;;;5096971;28;20024;-74
2023/05/11 03:52:15;;;;;;;10.38;6.15;;;12.80;99.90;;;;;;5097410;28;20034;-74
2023/05/11 03:54:42;;;;;;;10.45;5.45;;;12.80;99.90;;;;;;5100354;28;20024;-74
2023/05/11 03:57:08;;;;;;;10.40;5.70;;;12.80;99.90;;;;;;5099808;28;20024;-74
2023/05/11 03:59:34;;;;;;;8.07;5.47;;;12.90;99.90;;;;;;5100929;28;20032;-74
2023/05/11 04:02:00;;;;;;;10.70;4.38;;;13.00;99.90;;;;;;5099938;28;20035;-74
2023/05/11 04:04:29;;;;;;;7.22;5.03;;;13.00;99.90;;;;;;5099813;28;20020;-74
2023/05/11 04:06:56;;;;;;;7.10;5.00;;;13.00;99.90;;;;;;5100856;28;20032;-74
2023/05/11 04:09:22;;;;;;;8.05;4.47;;;13.10;99.90;;;;;;5100029;28;20032;-74
2023/05/11 04:11:47;;;;;;;10.02;5.38;;;13.20;99.90;;;;;;5100048;28;20020;-74
2023/05/11 04:14:13;;;;;;;7.15;4.32;;;13.10;99.90;;;;;;5099508;28;20016;-74
2023/05/11 04:16:38;;;;;;;9.75;4.55;;;13.20;99.90;;;;;;5100377;28;20027;-74
2023/05/11 04:19:05;;;;;;;7.90;4.72;;;13.20;99.90;;;;;;5099208;28;20028;-74
2023/05/11 04:21:31;;;;;;;7.90;5.03;;;13.30;99.90;;;;;;5100331;28;20055;-74
2023/05/11 04:23:57;;;;;;;7.88;5.25;;;13.20;99.90;;;;;;5099404;28;20024;-74
2023/05/11 04:26:23;;;;;;;9.80;5.53;;;13.10;99.90;;;;;;5100135;28;20024;-74
2023/05/11 04:28:48;;;;;;;8.07;4.60;;;12.90;99.90;;;;;;5099644;28;20145;-75
2023/05/11 04:31:14;;;;;;;8.05;4.90;;;12.80;99.90;;;;;;5099377;28;20020;-75
2023/05/11 04:33:40;;;;;;;7.07;4.85;;;12.90;99.90;;;;;;5099682;28;20020;-75
2023/05/11 04:36:06;;;;;;;8.05;4.72;;;13.10;99.90;;;;;;5099436;28;20081;-75
2023/05/11 04:38:31;;;;;;;11.55;5.40;;;13.10;99.90;;;;;;5099027;28;20028;-75
2023/05/11 04:41:01;;;;;;;9.18;4.78;;;13.00;99.90;;;;;;5099372;28;20065;-74
2023/05/11 04:43:27;;;;;;;8.60;5.40;;;12.80;99.90;;;;;;5099327;28;20032;-74
2023/05/11 04:45:52;;;;;;;7.72;5.25;;;12.80;99.90;;;;;;5099480;28;20028;-75
2023/05/11 04:48:18;;;;;;;7.15;4.15;;;12.80;99.90;;;;;;5099504;28;20027;-75
2023/05/11 04:50:43;;;;;;;9.48;4.65;;;12.90;99.90;;;;;;5098920;28;20020;-75
2023/05/11 04:53:09;;;;;;;8.25;4.47;;;13.00;99.90;;;;;;5100071;28;20127;-75
2023/05/11 04:55:35;;;;;;;6.72;4.75;;;13.00;99.90;;;;;;5098879;28;20017;-75
2023/05/11 04:58:00;;;;;;;7.40;4.32;;;13.10;99.90;;;;;;5099061;28;20028;-75
2023/05/11 05:00:26;;;;;;;6.00;4.07;;;13.20;99.90;;;;;;5099016;28;20024;-75
2023/05/11 05:02:52;;;;;;;6.10;4.40;;;13.20;99.90;;;;;;5098865;28;20051;-75
2023/05/11 05:05:17;;;;;;;6.43;4.10;;;13.30;99.90;;;;;;5098235;28;20114;-75
2023/05/11 05:07:43;;;;;;;8.73;5.25;;;13.20;99.90;;;;;;5098590;28;20107;-75
2023/05/11 05:10:11;;;;;;;7.55;4.35;;;13.20;99.90;;;;;;5099264;28;20020;-75
2023/05/11 05:12:37;;;;;;;9.25;5.43;;;13.20;99.90;;;;;;5099541;28;20016;-75
2023/05/11 05:15:04;;;;;;;9.70;4.90;;;13.40;99.90;;;;;;5098708;28;20032;-74
2023/05/11 05:17:30;;;;;;;7.35;4.47;;;13.50;99.90;;;;;;5100800;28;20062;-75
2023/05/11 05:19:56;;;;;;;12.10;4.97;;;13.50;99.90;;;;;;5098895;28;20028;-75
2023/05/11 05:22:22;;;;;;;7.40;4.78;;;13.40;99.90;;;;;;5098210;28;20031;-75
2023/05/11 05:24:48;;;;;;;16.17;6.40;;;13.40;99.90;;;;;;5098197;28;20032;-75
2023/05/11 05:27:14;;;;;;;8.35;5.15;;;13.50;99.90;;;;;;5098189;28;20042;-75
2023/05/11 05:29:39;;;;;;;10.32;5.70;;;13.50;99.90;;;;;;5099204;28;20031;-76
2023/05/11 05:32:05;;;;;;;11.00;6.28;;;13.40;99.90;;;;;;5098322;28;20024;-76
2023/05/11 05:34:30;;;;;;;9.88;6.43;;;13.40;99.90;;;;;;5098543;28;20031;-72
2023/05/11 05:36:56;;;;;;;11.65;5.90;;;13.50;99.90;;;;;;5098051;28;20062;-73
2023/05/11 05:39:22;;;;;;;10.07;6.20;;;13.50;99.90;;;;;;5098024;28;20031;-73
2023/05/11 05:41:47;;;;;;;9.90;6.38;;;13.50;99.90;;;;;;5098316;28;20090;-73
2023/05/11 05:44:13;;;;;;;9.88;6.20;;;13.60;99.90;;;;;;5098054;28;20077;-73
2023/05/11 05:46:38;;;;;;;15.15;7.00;;;13.40;99.90;;;;;;5097627;28;20119;-74
2023/05/11 05:49:04;;;;;;;14.38;7.15;;;13.30;99.90;;;;;;5097821;28;20027;-74
2023/05/11 05:51:30;;;;;;;11.68;6.18;;;13.20;99.90;;;;;;5097807;28;20095;-75
2023/05/11 05:53:55;;;;;;;13.18;7.07;;;13.30;99.90;;;;;;5098832;28;20040;-74
2023/05/11 05:56:21;;;;;;;13.52;6.88;;;13.20;99.90;;;;;;5098499;28;20031;-75
2023/05/11 05:58:47;;;;;;;11.80;6.80;;;13.30;99.90;;;;;;5097522;28;20024;-74
2023/05/11 06:01:12;;;;;;;11.05;6.00;;;13.30;99.90;;;;;;5098777;28;20024;-73
2023/05/11 06:03:38;;;;;;;10.80;6.35;;;13.30;99.90;;;;;;5098437;28;20046;-75
2023/05/11 06:06:05;;;;;;;10.25;6.45;;;13.40;99.90;;;;;;5097900;28;21983;-75
2023/05/11 06:08:31;;;;;;;13.70;7.10;;;13.40;99.90;;;;;;5099055;28;20043;-74
2023/05/11 06:10:57;;;;;;;11.02;6.50;;;13.40;99.90;;;;;;5097360;28;20024;-74
2023/05/11 06:13:22;;;;;;;12.43;6.53;;;13.40;99.90;;;;;;5097308;28;20023;-74
2023/05/11 06:15:48;;;;;;;11.77;7.15;;;13.40;99.90;;;;;;5096091;28;20051;-74
2023/05/11 06:18:13;;;;;;;12.18;6.20;;;13.50;99.90;;;;;;5098227;28;20024;-74
2023/05/11 06:20:39;;;;;;;14.10;6.45;;;13.50;99.90;;;;;;5097083;28;20023;-74
2023/05/11 06:23:05;;;;;;;11.30;6.70;;;13.60;99.90;;;;;;5096947;28;20111;-75
2023/05/11 06:25:33;;;;;;;10.80;6.80;;;13.70;99.90;;;;;;5098223;28;20028;-75
2023/05/11 06:27:59;;;;;;;10.48;6.88;;;13.70;99.90;;;;;;5097777;28;20078;-74
2023/05/11 06:30:24;;;;;;;10.48;6.45;;;13.70;99.90;;;;;;5096999;28;20012;-74
2023/05/11 06:32:50;;;;;;;12.85;7.03;;;13.70;99.90;;;;;;5097151;28;20180;-74
2023/05/11 06:35:16;;;;;;;10.98;6.47;;;13.70;99.90;;;;;;5096783;28;20020;-74
2023/05/11 06:37:41;;;;;;;14.32;7.43;;;13.70;99.90;;;;;;5097054;28;20066;-75
2023/05/11 06:40:08;;;;;;;15.45;7.28;;;13.80;99.90;;;;;;5096698;28;20024;-75
2023/05/11 06:42:33;;;;;;;12.70;7.03;;;13.80;99.90;;;;;;5096987;28;20115;-75
2023/05/11 06:44:59;;;;;;;11.35;7.25;;;13.70;99.90;;;;;;5096924;28;20119;-75
2023/05/11 06:47:24;;;;;;;12.98;7.03;;;13.70;99.90;;;;;;5096758;28;20119;-74
2023/05/11 06:49:50;;;;;;;11.68;6.45;;;13.70;99.90;;;;;;5096704;28;20016;-76
2023/05/11 06:52:15;;;;;;;12.00;6.80;;;13.70;99.90;;;;;;5096706;28;20020;-75
2023/05/11 06:54:41;;;;;;;11.60;7.00;;;13.70;99.90;;;;;;5097781;28;20067;-76
2023/05/11 06:57:06;;;;;;;10.57;6.32;;;13.70;99.90;;;;;;5096754;28;20026;-76
2023/05/11 06:59:32;;;;;;;10.50;6.13;;;13.70;99.90;;;;;;5097159;28;20038;-75
2023/05/11 07:01:57;;;;;;;15.30;7.55;;;13.80;99.90;;;;;;5097117;28;20024;-77
2023/05/11 07:04:23;;;;;;;9.57;5.97;;;13.80;99.90;;;;;;5096553;28;20026;-76
2023/05/11 07:06:49;;;;;;;11.73;6.60;;;13.90;99.90;;;;;;5096460;28;20028;-76
2023/05/11 07:09:14;;;;;;;12.50;7.30;;;14.00;99.90;;;;;;5097882;28;20038;-77
2023/05/11 07:11:41;;;;;;;13.85;6.80;;;14.00;99.90;;;;;;5097567;28;20088;-76
2023/05/11 07:14:07;;;;;;;12.00;6.25;;;14.00;99.90;;;;;;5096331;28;20149;-77
2023/05/11 07:16:37;;;;;;;12.38;6.65;;;14.00;99.90;;;;;;5097047;28;20082;-77
2023/05/11 07:19:07;;;;;;;13.02;6.93;;;14.00;99.90;;;;;;5097173;28;20024;-77
2023/05/11 07:21:33;;;;;;;11.20;6.55;;;14.00;99.90;;;;;;5096242;28;20104;-77
2023/05/11 07:23:59;;;;;;;14.35;6.68;;;14.10;99.90;;;;;;5096517;28;20020;-77
2023/05/11 07:26:25;;;;;;;10.57;6.88;;;14.10;99.90;;;;;;5096863;28;20031;-78
2023/05/11 07:28:50;;;;;;;11.85;6.78;;;14.10;99.90;;;;;;5104093;28;20089;-78
2023/05/11 07:31:16;;;;;;;13.40;6.50;;;14.10;99.90;;;;;;5100717;28;20074;-77
2023/05/11 07:33:41;;;;;;;14.73;6.60;;;14.10;99.90;;;;;;5101300;28;20032;-78
2023/05/11 07:36:07;;;;;;;10.68;6.22;;;14.10;99.90;;;;;;5101092;28;20040;-78
2023/05/11 07:38:33;;;;;;;11.95;6.72;;;14.20;99.90;;;;;;5100246;28;20048;-78
2023/05/11 07:40:58;;;;;;;11.57;6.63;;;14.30;99.90;;;;;;5100257;28;20069;-79
2023/05/11 07:43:24;;;;;;;9.13;6.05;;;14.40;99.90;;;;;;5100178;28;20027;-77
2023/05/11 07:45:50;;;;;;;13.63;6.32;;;14.30;99.90;;;;;;5101004;28;20017;-77
2023/05/11 07:48:16;;;;;;;13.90;6.80;;;14.30;99.90;;;;;;5100159;28;20022;-77
2023/05/11 07:50:42;;;;;;;10.43;6.38;;;14.30;99.90;;;;;;5100095;28;20016;-78
2023/05/11 07:53:08;;;;;;;12.77;6.65;;;14.20;99.90;;;;;;5100863;28;20027;-78
2023/05/11 07:55:34;;;;;;;12.40;7.65;;;14.20;99.90;;;;;;5099859;28;20016;-77
2023/05/11 07:57:59;;;;;;;10.95;6.43;;;14.30;99.90;;;;;;5100922;28;20031;-77
2023/05/11 08:00:25;;;;;;;15.77;6.97;;;14.30;99.90;;;;;;5099796;28;20111;-78
2023/05/11 08:02:51;;;;;;;11.57;7.00;;;14.40;99.90;;;;;;5100683;28;20073;-77
2023/05/11 08:05:18;;;;;;;11.63;6.68;;;14.50;99.90;;;;;;5100688;28;20023;-78
2023/05/11 08:07:44;;;;;;;14.40;6.88;;;14.50;99.90;;;;;;5099330;28;20035;-77
2023/05/11 08:10:10;;;;;;;13.98;7.82;;;14.60;99.90;;;;;;5100902;28;20020;-77
2023/05/11 08:12:36;;;;;;;13.40;6.72;;;14.70;99.90;;;;;;5099606;28;20036;-78
2023/05/11 08:15:02;;;;;;;12.10;6.88;;;14.80;99.90;;;;;;5099599;28;20162;-77
2023/05/11 08:17:29;;;;;;;19.83;7.78;;;14.80;99.90;;;;;;5100072;28;20028;-78
2023/05/11 08:19:55;;;;;;;13.40;6.80;;;14.80;99.90;;;;;;5100165;28;20024;-78
2023/05/11 08:22:20;;;;;;;11.68;6.88;;;14.80;99.90;;;;;;5099503;28;20047;-77
2023/05/11 08:24:46;;;;;;;11.18;6.47;;;14.90;99.90;;;;;;5099644;28;20020;-78
2023/05/11 08:27:13;;;;;;;11.45;6.50;;;14.90;99.90;;;;;;5099461;28;20024;-78
2023/05/11 08:29:38;;;;;;;14.45;7.60;;;14.90;99.90;;;;;;5099279;28;20132;-78
2023/05/11 08:32:04;;;;;;;10.27;6.47;;;15.00;99.90;;;;;;5100024;28;20053;-77
2023/05/11 08:34:29;;;;;;;11.25;7.28;;;15.00;99.90;;;;;;5099586;28;20028;-77
2023/05/11 08:36:55;;;;;;;12.18;6.22;;;15.00;99.90;;;;;;5099404;28;20038;-77
2023/05/11 08:39:21;;;;;;;15.40;7.93;;;15.00;99.90;;;;;;5097990;28;20024;-77
2023/05/11 08:41:48;;;;;;;11.30;6.75;;;14.90;99.90;;;;;;5099317;28;20020;-77
2023/05/11 08:44:15;;;;;;;11.55;6.22;;;14.80;99.90;;;;;;5099112;28;20119;-77
2023/05/11 08:46:44;;;;;;;14.45;7.75;;;14.80;99.90;;;;;;5099031;28;20032;-78
2023/05/11 08:49:10;;;;;;;16.20;7.75;;;14.80;99.90;;;;;;5099122;28;20084;-78
2023/05/11 08:51:35;;;;;;;12.77;6.63;;;14.90;99.90;;;;;;5100132;28;20072;-79
2023/05/11 08:54:02;;;;;;;11.73;6.45;;;14.90;99.90;;;;;;5098704;28;20032;-78
2023/05/11 08:56:28;;;;;;;11.30;7.45;;;15.00;99.90;;;;;;5099026;28;20038;-77
2023/05/11 08:58:55;;;;;;;11.55;6.53;;;15.00;99.90;;;;;;5099053;28;20075;-77
2023/05/11 09:01:22;;;;;;;16.90;7.15;;;15.00;99.90;;;;;;5098663;28;20036;-77
2023/05/11 09:03:48;;;;;;;12.15;6.60;;;15.00;99.90;;;;;;5099534;28;20024;-78
2023/05/11 09:06:15;;;;;;;13.75;6.88;;;15.10;99.90;;;;;;5098672;28;20027;-77
2023/05/11 09:08:42;;;;;;;12.10;7.15;;;15.20;99.90;;;;;;5098708;28;20032;-77
2023/05/11 09:11:08;;;;;;;10.13;6.60;;;15.30;99.90;;;;;;5098672;28;20024;-77
2023/05/11 09:13:33;;;;;;;13.75;6.78;;;15.30;99.90;;;;;;5098904;28;20020;-77
2023/05/11 09:15:59;;;;;;;12.75;6.00;;;15.30;99.90;;;;;;5098774;28;20023;-77
2023/05/11 09:18:25;;;;;;;11.50;6.60;;;15.40;99.90;;;;;;5098240;28;20036;-78
2023/05/11 09:20:51;;;;;;;10.75;6.35;;;15.50;99.90;;;;;;5098410;28;20024;-77
2023/05/11 09:23:17;;;;;;;12.35;7.00;;;15.60;99.90;;;;;;5098555;28;20020;-77
2023/05/11 09:25:43;;;;;;;16.15;6.82;;;15.60;99.90;;;;;;5098458;28;20043;-78
2023/05/11 09:28:15;;;;;;;10.88;6.82;;;15.70;99.90;;;;;;5099232;28;20023;-77
2023/05/11 09:30:42;;;;;;;13.88;7.63;;;15.80;99.90;;;;;;5098097;28;20213;-77
2023/05/11 09:33:07;;;;;;;10.32;6.25;;;15.90;99.90;;;;;;5099138;28;20020;-78
2023/05/11 09:35:34;;;;;;;12.32;6.97;;;15.90;99.90;;;;;;5098248;28;20046;-78
2023/05/11 09:38:09;;;;;;;10.18;6.50;;;15.90;99.90;;;;;;5098368;28;20020;-78
2023/05/11 09:40:38;;;;;;;13.73;6.70;;;16.00;99.90;;;;;;5097906;28;20024;-78
2023/05/11 09:43:26;;;;;;;13.77;7.72;;;16.10;99.90;;;;;;5097757;28;20031;-78
2023/05/11 09:45:57;;;;;;;12.82;6.78;;;16.30;99.90;;;;;;5098755;28;20058;-78
2023/05/11 09:48:28;;;;;;;15.07;7.68;;;16.30;99.90;;;;;;5098738;28;20031;-77
2023/05/11 09:51:04;;;;;;;11.27;7.65;;;16.30;99.90;;;;;;5098530;28;20024;-80
2023/05/11 09:53:44;;;;;;;12.70;7.30;;;16.30;99.90;;;;;;5098753;28;20035;-78
2023/05/11 09:56:11;;;;;;;11.82;7.75;;;16.60;99.90;;;;;;5098130;28;20078;-77
2023/05/11 09:58:54;;;;;;;16.67;7.97;;;16.40;99.90;;;;;;5097996;28;20020;-77
2023/05/11 10:01:31;;;;;;;12.48;7.28;;;16.50;99.90;;;;;;5098365;28;20024;-77
2023/05/11 10:03:58;;;;;;;11.85;6.88;;;16.30;99.90;;;;;;5098787;28;20021;-77
2023/05/11 10:06:24;;;;;;;10.15;6.20;;;16.50;99.90;;;;;;5097540;28;20020;-77
2023/05/11 10:08:50;;;;;;;10.10;6.70;;;16.60;99.90;;;;;;5098178;28;20032;-78
2023/05/11 10:11:16;;;;;;;10.85;6.32;;;16.60;99.90;;;;;;5098243;28;20016;-78
2023/05/11 10:13:44;;;;;;;11.80;6.68;;;16.70;99.90;;;;;;5097650;28;20056;-77
2023/05/11 10:16:11;;;;;;;15.95;7.00;;;16.70;99.90;;;;;;5097428;28;20024;-78
2023/05/11 10:18:38;;;;;;;12.82;6.90;;;16.70;99.90;;;;;;5097578;28;20020;-78
2023/05/11 10:21:04;;;;;;;11.25;6.65;;;16.50;99.90;;;;;;5097918;28;20024;-78
2023/05/11 10:23:32;;;;;;;11.23;7.63;;;16.40;99.90;;;;;;5097593;28;20020;-78
2023/05/11 10:25:58;;;;;;;13.02;7.28;;;16.40;99.90;;;;;;5097184;28;20024;-78
2023/05/11 10:28:24;;;;;;;12.45;7.40;;;16.50;99.90;;;;;;5097611;28;20115;-78
2023/05/11 10:30:51;;;;;;;18.60;8.05;;;16.40;99.90;;;;;;5097120;28;20107;-79
2023/05/11 10:33:17;;;;;;;11.85;7.03;;;16.30;99.90;;;;;;5098129;28;20020;-79
2023/05/11 10:35:44;;;;;;;16.35;7.68;;;16.50;99.90;;;;;;5096820;28;20016;-79
2023/05/11 10:38:12;;;;;;;15.88;8.77;;;16.60;99.90;;;;;;5096810;28;20020;-79
2023/05/11 10:40:41;;;;;;;31.45;10.75;;;16.80;99.90;;;;;;5097116;28;20024;-79
2023/05/11 10:43:21;;;;;;;13.55;6.65;;;17.00;99.90;;;;;;5097462;28;20054;-79
2023/05/11 10:46:19;;;;;;;11.10;6.22;;;17.60;99.90;;;;;;5096910;28;20028;-79
2023/05/11 10:49:21;;;;;;;11.57;6.13;;;17.80;99.90;;;;;;5077773;28;20047;-80
2023/05/11 10:52:06;;;;;;;10.35;5.78;;;17.60;99.90;;;;;;5096767;28;20023;-79
2023/05/11 10:54:48;;;;;;;9.32;6.63;;;18.00;99.90;;;;;;5097462;28;20032;-80
2023/05/11 10:57:36;;;;;;;6.00;4.90;;;18.40;99.90;;;;;;5096544;28;20024;-79
2023/05/11 11:00:09;;;;;;;9.68;5.30;;;18.60;99.90;;;;;;5096466;28;20036;-79
2023/05/11 11:02:36;;;;;;;11.15;5.63;;;18.40;99.90;;;;;;5096192;28;20073;-79
2023/05/11 11:05:04;;;;;;;6.40;4.68;;;19.10;99.90;;;;;;5096775;28;20060;-79
2023/05/11 11:07:31;;;;;;;7.30;5.18;;;19.70;99.90;;;;;;5096910;28;20035;-79
2023/05/11 11:10:05;;;;;;;7.13;4.88;;;19.30;99.90;;;;;;5096466;28;20028;-79
2023/05/11 11:12:35;;;;;;;9.20;5.43;;;19.30;99.90;;;;;;5097229;28;20095;-81
2023/05/11 11:15:05;;;;;;;7.50;4.88;;;19.30;99.90;;;;;;5097311;28;20020;-80
2023/05/11 11:17:34;;;;;;;9.23;5.10;;;19.30;99.90;;;;;;5096232;28;20035;-79
2023/05/11 11:20:39;;;;;;;8.77;5.00;;;19.30;99.90;;;;;;5096860;28;20046;-79
2023/05/11 11:23:04;;;;;;;8.80;5.20;;;18.80;99.90;;;;;;5097358;28;20115;-75
2023/05/11 11:25:53;;;;;;;8.20;4.75;;;18.60;99.90;;;;;;5096913;28;20115;-75
2023/05/11 11:28:18;;;;;;;8.13;4.93;;;18.70;99.90;;;;;;5096971;28;20073;-75
2023/05/11 11:30:44;;;;;;;6.97;4.90;;;18.70;99.90;;;;;;5096136;28;20099;-75
2023/05/11 11:33:09;;;;;;;7.80;4.95;;;18.70;99.90;;;;;;5097190;28;20087;-75
2023/05/11 11:35:38;;;;;;;8.80;5.22;;;18.80;99.90;;;;;;5096177;28;20013;-75
2023/05/11 11:38:05;;;;;;;6.97;4.65;;;18.80;99.90;;;;;;5096110;28;20050;-80
2023/05/11 11:40:41;;;;;;;7.53;5.13;;;18.50;99.90;;;;;;5096600;28;20024;-80
2023/05/11 11:43:21;;;;;;;9.93;6.20;;;18.70;99.90;;;;;;5096138;28;20024;-80
2023/05/11 11:45:54;;;;;;;8.73;5.90;;;18.50;99.90;;;;;;5096291;28;20054;-80
2023/05/11 11:48:22;;;;;;;8.98;6.32;;;18.30;99.90;;;;;;5095771;28;20145;-79
2023/05/11 11:50:59;;;;;;;10.48;6.93;;;18.10;99.90;;;;;;5097032;28;20019;-79
2023/05/11 11:53:36;;;;;;;13.88;7.05;;;17.80;99.90;;;;;;5096904;28;20024;-80
2023/05/11 11:56:03;;;;;;;10.27;6.78;;;17.40;99.90;;;;;;5096816;28;20030;-80
2023/05/11 11:58:44;;;;;;;10.70;5.80;;;17.30;99.90;;;;;;5096146;28;20051;-79
2023/05/11 12:01:12;;;;;;;7.43;4.50;;;17.20;99.90;;;;;;5095869;28;20020;-79
2023/05/11 12:03:40;;;;;;;4.22;3.55;;;17.10;99.90;;;;;;5096869;28;20032;-79
2023/05/11 12:06:08;;;;;;;5.90;4.20;;;16.90;99.90;;;;;;5096575;28;20020;-79
2023/05/11 12:08:35;;;;;;;15.13;5.63;;;16.80;99.90;;;;;;5130497;22;20031;-71
2023/05/11 12:11:02;;;;;;;17.98;5.97;;;16.70;99.90;;;;;;5136932;28;20065;-71
2023/05/11 12:13:28;;;;;;;22.25;7.47;;;16.30;99.90;;;;;;5138354;27;20023;-72
2023/05/11 12:16:10;;;;;;;18.17;7.75;;;15.70;99.90;;;;;;5141351;27;20019;-70
2023/05/11 12:18:35;;;;;;;13.30;7.07;;;15.30;99.90;;;;;;5133226;27;20020;-72
2023/05/11 12:21:01;;;;;;;28.00;11.05;;;15.20;99.90;;;;;;5120065;28;20042;-72
2023/05/11 12:23:27;;;;;;;18.42;7.93;;;15.30;99.90;;;;;;5119973;28;20080;-75
2023/05/11 12:26:03;;;;;;;17.35;8.05;;;15.40;99.90;;;;;;5120145;28;20011;-75
2023/05/11 12:28:29;;;;;;;17.10;6.85;;;15.40;99.90;;;;;;5120359;28;20020;-75
2023/05/11 12:30:55;;;;;;;18.17;8.05;;;15.30;99.90;;;;;;5119640;28;20024;-75
2023/05/11 12:33:22;;;;;;;22.67;8.43;;;15.20;99.90;;;;;;5119578;28;20019;-76
2023/05/11 12:35:55;;;;;;;15.43;8.02;;;15.20;99.90;;;;;;5119961;28;20030;-75
2023/05/11 12:38:21;;;;;;;13.60;6.60;;;15.30;99.90;;;;;;5120331;28;20019;-76
2023/05/11 12:40:48;;;;;;;21.38;7.68;;;15.30;99.90;;;;;;5120508;28;20023;-76
2023/05/11 12:43:17;;;;;;;17.00;7.03;;;15.40;99.90;;;;;;5120239;28;20047;-76
2023/05/11 12:45:43;;;;;;;15.38;6.90;;;15.30;99.90;;;;;;5119391;28;20020;-75